createdAt,value
2023-03-29T00:00:23.000Z,59.60
2023-03-29T00:01:35.849Z,59.32
2023-03-29T00:02:24.143Z,59.34
2023-03-29T00:03:23.062Z,59.38
2023-03-29T00:04:22.993Z,59.58
2023-03-29T00:05:23.096Z,59.56
2023-03-29T00:06:22.914Z,64.47
2023-03-29T00:07:22.943Z,64.32
2023-03-29T00:08:22.921Z,59.73
2023-03-29T00:09:22.929Z,59.40
2023-03-29T00:10:22.947Z,62.96
2023-03-29T00:11:22.899Z,59.25
2023-03-29T00:12:22.872Z,59.15
2023-03-29T00:13:22.960Z,62.83
2023-03-29T00:14:22.903Z,61.31
2023-03-29T00:15:22.887Z,59.08
2023-03-29T00:16:22.935Z,58.71
2023-03-29T00:17:22.885Z,65.01
2023-03-29T00:18:22.887Z,58.55
2023-03-29T00:19:23.846Z,58.45
2023-03-29T00:20:22.831Z,64.74
2023-03-29T00:21:22.828Z,62.74
2023-03-29T00:22:22.828Z,59.35
2023-03-29T00:23:22.819Z,59.34
2023-03-29T00:24:22.817Z,59.35
2023-03-29T00:25:22.829Z,65.07
2023-03-29T00:26:22.949Z,62.51
2023-03-29T00:27:22.820Z,59.62
2023-03-29T00:28:22.873Z,59.37
2023-03-29T00:29:22.828Z,61.89
2023-03-29T00:30:22.796Z,59.54
2023-03-29T00:31:22.852Z,63.99
2023-03-29T00:32:22.891Z,67.35
2023-03-29T00:33:22.790Z,64.12
2023-03-29T00:34:22.810Z,59.26
2023-03-29T00:35:22.760Z,59.50
2023-03-29T00:36:22.752Z,67.42
2023-03-29T00:37:22.772Z,62.68
2023-03-29T00:38:22.823Z,59.30
2023-03-29T00:39:22.727Z,59.32
2023-03-29T00:40:22.729Z,59.05
2023-03-29T00:41:22.748Z,63.20
2023-03-29T00:42:22.715Z,59.57
2023-03-29T00:43:22.733Z,59.59
2023-03-29T00:44:22.717Z,59.52
2023-03-29T00:45:22.724Z,59.42
2023-03-29T00:46:22.827Z,59.80
2023-03-29T00:47:22.828Z,62.39
2023-03-29T00:48:22.676Z,59.93
2023-03-29T00:49:22.661Z,59.88
2023-03-29T00:50:22.744Z,68.37
2023-03-29T00:51:22.628Z,65.14
2023-03-29T00:52:22.666Z,59.91
2023-03-29T00:53:22.714Z,60.80
2023-03-29T00:54:22.657Z,60.34
2023-03-29T00:55:22.643Z,59.73
2023-03-29T00:56:22.659Z,60.57
2023-03-29T00:57:22.786Z,59.73
2023-03-29T00:58:23.689Z,60.63
2023-03-29T00:59:22.623Z,59.52
2023-03-29T01:00:22.687Z,59.56
2023-03-29T01:01:22.717Z,59.52
2023-03-29T01:02:22.656Z,59.72
2023-03-29T01:03:22.811Z,63.22
2023-03-29T01:04:22.582Z,59.47
2023-03-29T01:05:22.578Z,59.59
2023-03-29T01:06:23.582Z,62.85
2023-03-29T01:07:22.621Z,59.60
2023-03-29T01:08:22.579Z,60.89
2023-03-29T01:09:22.566Z,62.25
2023-03-29T01:10:22.576Z,65.91
2023-03-29T01:11:22.547Z,59.36
2023-03-29T01:12:22.549Z,59.26
2023-03-29T01:13:22.557Z,59.13
2023-03-29T01:14:22.516Z,63.12
2023-03-29T01:15:22.538Z,63.16
2023-03-29T01:16:23.521Z,62.60
2023-03-29T01:17:22.478Z,59.29
2023-03-29T01:18:22.510Z,59.28
2023-03-29T01:19:22.534Z,59.11
2023-03-29T01:20:22.513Z,59.21
2023-03-29T01:21:22.467Z,59.06
2023-03-29T01:22:22.506Z,59.21
2023-03-29T01:23:22.462Z,63.94
2023-03-29T01:24:22.438Z,62.87
2023-03-29T01:25:22.486Z,59.29
2023-03-29T01:26:22.440Z,59.43
2023-03-29T01:27:22.434Z,64.64
2023-03-29T01:28:22.475Z,60.03
2023-03-29T01:29:23.473Z,59.25
2023-03-29T01:30:22.423Z,68.41
2023-03-29T01:31:22.476Z,62.29
2023-03-29T01:32:22.447Z,64.46
2023-03-29T01:33:22.386Z,59.39
2023-03-29T01:34:22.392Z,60.61
2023-03-29T01:35:22.382Z,61.23
2023-03-29T01:36:22.440Z,63.40
2023-03-29T01:37:22.413Z,62.94
2023-03-29T01:38:22.396Z,62.28
2023-03-29T01:39:23.358Z,66.24
2023-03-29T01:40:22.360Z,59.81
2023-03-29T01:41:22.405Z,60.48
2023-03-29T01:42:22.829Z,59.76
2023-03-29T01:43:22.343Z,59.43
2023-03-29T01:44:22.341Z,59.44
2023-03-29T01:45:22.350Z,63.34
2023-03-29T01:46:22.339Z,60.75
2023-03-29T01:47:22.342Z,63.09
2023-03-29T01:48:22.279Z,66.60
2023-03-29T01:49:22.310Z,63.58
2023-03-29T01:50:22.287Z,60.34
2023-03-29T01:51:22.325Z,59.70
2023-03-29T01:52:22.272Z,62.27
2023-03-29T01:53:22.289Z,67.14
2023-03-29T01:54:22.303Z,62.94
2023-03-29T01:55:22.311Z,61.89
2023-03-29T01:56:22.235Z,59.94
2023-03-29T01:57:22.397Z,68.23
2023-03-29T01:58:22.265Z,61.61
2023-03-29T01:59:22.238Z,59.66
2023-03-29T02:00:22.254Z,60.02
2023-03-29T02:01:22.246Z,59.84
2023-03-29T02:02:22.317Z,63.69
2023-03-29T02:03:22.301Z,61.79
2023-03-29T02:04:22.285Z,60.10
2023-03-29T02:05:22.185Z,60.13
2023-03-29T02:06:22.194Z,60.05
2023-03-29T02:07:22.216Z,60.04
2023-03-29T02:08:22.181Z,64.28
2023-03-29T02:09:22.211Z,64.06
2023-03-29T02:10:22.148Z,64.21
2023-03-29T02:11:22.153Z,63.26
2023-03-29T02:12:22.179Z,60.20
2023-03-29T02:13:22.136Z,60.15
2023-03-29T02:14:22.197Z,60.26
2023-03-29T02:15:22.138Z,62.50
2023-03-29T02:16:22.313Z,60.94
2023-03-29T02:17:22.116Z,60.07
2023-03-29T02:18:22.096Z,63.52
2023-03-29T02:19:22.171Z,64.45
2023-03-29T02:20:22.097Z,60.34
2023-03-29T02:21:22.126Z,60.18
2023-03-29T02:22:22.121Z,60.92
2023-03-29T02:23:22.091Z,64.53
2023-03-29T02:24:22.133Z,60.10
2023-03-29T02:25:22.081Z,63.24
2023-03-29T02:26:22.072Z,63.60
2023-03-29T02:27:22.082Z,60.19
2023-03-29T02:28:22.035Z,60.17
2023-03-29T02:29:22.046Z,60.13
2023-03-29T02:30:22.033Z,60.15
2023-03-29T02:31:22.151Z,61.95
2023-03-29T02:32:22.049Z,63.69
2023-03-29T02:33:22.012Z,60.26
2023-03-29T02:34:22.002Z,62.69
2023-03-29T02:35:22.018Z,65.87
2023-03-29T02:36:22.089Z,64.11
2023-03-29T02:37:22.003Z,65.20
2023-03-29T02:38:22.017Z,66.07
2023-03-29T02:39:21.978Z,67.51
2023-03-29T02:40:21.983Z,63.30
2023-03-29T02:41:22.021Z,60.27
2023-03-29T02:42:21.994Z,63.19
2023-03-29T02:43:24.524Z,60.23
2023-03-29T02:44:21.956Z,61.73
2023-03-29T02:45:21.979Z,64.82
2023-03-29T02:46:22.021Z,60.94
2023-03-29T02:47:22.838Z,67.12
2023-03-29T02:48:21.940Z,65.26
2023-03-29T02:49:21.909Z,66.85
2023-03-29T02:50:21.938Z,66.90
2023-03-29T02:51:21.907Z,65.76
2023-03-29T02:52:21.914Z,67.21
2023-03-29T02:53:21.905Z,69.22
2023-03-29T02:54:21.885Z,64.58
2023-03-29T02:55:21.916Z,62.90
2023-03-29T02:56:21.914Z,60.19
2023-03-29T02:57:22.892Z,64.72
2023-03-29T02:58:21.865Z,63.98
2023-03-29T02:59:21.853Z,62.26
2023-03-29T03:00:21.835Z,68.24
2023-03-29T03:01:21.859Z,66.54
2023-03-29T03:02:21.932Z,64.41
2023-03-29T03:03:21.931Z,69.24
2023-03-29T03:04:21.805Z,63.17
2023-03-29T03:05:21.817Z,66.50
2023-03-29T03:06:21.810Z,60.33
2023-03-29T03:07:21.830Z,69.38
2023-03-29T03:08:21.804Z,65.83
2023-03-29T03:09:21.812Z,64.50
2023-03-29T03:10:21.801Z,66.19
2023-03-29T03:11:21.778Z,62.34
2023-03-29T03:12:21.750Z,69.76
2023-03-29T03:13:21.812Z,67.92
2023-03-29T03:14:21.768Z,71.97
2023-03-29T03:15:21.842Z,70.34
2023-03-29T03:16:21.822Z,68.60
2023-03-29T03:17:21.838Z,60.90
2023-03-29T03:18:21.725Z,66.19
2023-03-29T03:19:21.733Z,67.62
2023-03-29T03:20:21.711Z,64.81
2023-03-29T03:21:21.723Z,67.31
2023-03-29T03:22:21.728Z,64.24
2023-03-29T03:23:21.730Z,69.06
2023-03-29T03:24:21.695Z,67.11
2023-03-29T03:25:21.684Z,69.92
2023-03-29T03:26:21.701Z,65.43
2023-03-29T03:27:21.685Z,65.38
2023-03-29T03:28:21.695Z,63.34
2023-03-29T03:29:21.715Z,61.61
2023-03-29T03:30:21.680Z,70.79
2023-03-29T03:31:21.700Z,70.49
2023-03-29T03:32:21.701Z,70.38
2023-03-29T03:33:21.650Z,68.01
2023-03-29T03:34:21.649Z,72.39
2023-03-29T03:35:21.629Z,70.18
2023-03-29T03:36:21.612Z,69.93
2023-03-29T03:37:21.630Z,73.62
2023-03-29T03:38:21.644Z,75.70
2023-03-29T03:39:21.580Z,70.40
2023-03-29T03:40:21.813Z,73.24
2023-03-29T03:41:21.584Z,66.79
2023-03-29T03:42:21.567Z,68.92
2023-03-29T03:43:21.590Z,72.65
2023-03-29T03:44:21.572Z,69.78
2023-03-29T03:45:21.629Z,70.10
2023-03-29T03:46:21.637Z,66.07
2023-03-29T03:47:21.539Z,69.12
2023-03-29T03:48:22.530Z,74.43
2023-03-29T03:49:21.562Z,72.06
2023-03-29T03:50:21.521Z,63.68
2023-03-29T03:51:21.584Z,69.12
2023-03-29T03:52:21.498Z,72.06
2023-03-29T03:53:21.592Z,70.24
2023-03-29T03:54:21.504Z,70.66
2023-03-29T03:55:21.503Z,69.99
2023-03-29T03:56:21.508Z,67.23
2023-03-29T03:57:21.509Z,73.01
2023-03-29T03:58:21.510Z,69.26
2023-03-29T03:59:21.438Z,71.64
2023-03-29T04:00:21.532Z,69.45
2023-03-29T04:01:21.495Z,68.75
2023-03-29T04:02:21.466Z,68.76
2023-03-29T04:03:22.752Z,71.30
2023-03-29T04:04:21.520Z,69.01
2023-03-29T04:05:21.434Z,67.07
2023-03-29T04:06:21.480Z,72.41
2023-03-29T04:07:21.421Z,67.82
2023-03-29T04:08:21.458Z,68.98
2023-03-29T04:09:21.381Z,68.44
2023-03-29T04:10:21.384Z,66.47
2023-03-29T04:11:21.385Z,70.82
2023-03-29T04:12:21.494Z,68.64
2023-03-29T04:13:21.365Z,72.61
2023-03-29T04:14:21.388Z,74.62
2023-03-29T04:15:21.346Z,72.22
2023-03-29T04:16:21.506Z,69.61
2023-03-29T04:17:21.376Z,72.24
2023-03-29T04:18:21.445Z,72.37
2023-03-29T04:19:21.813Z,66.30
2023-03-29T04:20:21.333Z,69.77
2023-03-29T04:21:21.498Z,71.98
2023-03-29T04:22:22.314Z,71.26
2023-03-29T04:23:21.345Z,66.97
2023-03-29T04:24:21.304Z,73.36
2023-03-29T04:25:21.394Z,72.19
2023-03-29T04:26:21.303Z,72.47
2023-03-29T04:27:21.288Z,72.45
2023-03-29T04:28:21.332Z,68.65
2023-03-29T04:29:21.299Z,72.65
2023-03-29T04:30:21.277Z,72.30
2023-03-29T04:31:21.279Z,69.10
2023-03-29T04:32:21.331Z,71.51
2023-03-29T04:33:21.267Z,68.44
2023-03-29T04:34:21.278Z,69.98
2023-03-29T04:35:21.234Z,74.88
2023-03-29T04:36:21.245Z,69.86
2023-03-29T04:37:21.221Z,68.50
2023-03-29T04:38:21.235Z,72.47
2023-03-29T04:39:21.208Z,72.49
2023-03-29T04:40:21.244Z,75.44
2023-03-29T04:41:21.221Z,73.35
2023-03-29T04:42:21.304Z,74.63
2023-03-29T04:43:21.190Z,75.56
2023-03-29T04:44:21.262Z,73.22
2023-03-29T04:45:21.218Z,74.90
2023-03-29T04:46:21.228Z,73.23
2023-03-29T04:47:21.172Z,74.94
2023-03-29T04:48:21.167Z,74.94
2023-03-29T04:49:21.205Z,73.64
2023-03-29T04:50:21.264Z,73.05
2023-03-29T04:51:21.148Z,71.82
2023-03-29T04:52:23.183Z,70.79
2023-03-29T04:53:21.146Z,75.80
2023-03-29T04:54:21.145Z,73.74
2023-03-29T04:55:21.177Z,71.50
2023-03-29T04:56:21.108Z,68.23
2023-03-29T04:57:21.150Z,73.56
2023-03-29T04:58:23.646Z,74.00
2023-03-29T04:59:22.093Z,74.42
2023-03-29T05:00:21.128Z,73.78
2023-03-29T05:01:21.110Z,69.32
2023-03-29T05:02:21.081Z,70.41
2023-03-29T05:03:21.931Z,75.72
2023-03-29T05:04:22.043Z,74.74
2023-03-29T05:05:21.056Z,69.47
2023-03-29T05:06:21.043Z,75.04
2023-03-29T05:07:21.013Z,74.13
2023-03-29T05:08:21.030Z,69.18
2023-03-29T05:09:21.014Z,73.47
2023-03-29T05:10:21.009Z,71.52
2023-03-29T05:11:21.023Z,71.75
2023-03-29T05:12:21.004Z,67.62
2023-03-29T05:13:20.968Z,77.45
2023-03-29T05:14:20.988Z,73.63
2023-03-29T05:15:20.972Z,73.23
2023-03-29T05:16:21.075Z,74.38
2023-03-29T05:17:21.004Z,72.97
2023-03-29T05:18:20.983Z,71.71
2023-03-29T05:19:20.964Z,70.67
2023-03-29T05:20:21.009Z,74.68
2023-03-29T05:21:20.986Z,72.91
2023-03-29T05:22:20.966Z,72.25
2023-03-29T05:23:20.957Z,75.03
2023-03-29T05:24:20.930Z,75.67
2023-03-29T05:25:20.886Z,72.72
2023-03-29T05:26:21.014Z,75.46
2023-03-29T05:27:20.941Z,72.40
2023-03-29T05:28:20.882Z,77.26
2023-03-29T05:29:20.954Z,73.15
2023-03-29T05:30:20.899Z,75.23
2023-03-29T05:31:20.936Z,73.47
2023-03-29T05:32:20.946Z,75.27
2023-03-29T05:33:20.884Z,74.88
2023-03-29T05:34:20.864Z,71.74
2023-03-29T05:35:20.876Z,73.69
2023-03-29T05:36:20.844Z,74.59
2023-03-29T05:37:20.866Z,74.84
2023-03-29T05:38:20.840Z,74.49
2023-03-29T05:39:20.867Z,72.39
2023-03-29T05:40:20.883Z,73.01
2023-03-29T05:41:20.854Z,74.07
2023-03-29T05:42:20.804Z,75.22
2023-03-29T05:43:20.801Z,74.48
2023-03-29T05:44:20.805Z,73.50
2023-03-29T05:45:20.830Z,71.66
2023-03-29T05:46:20.778Z,77.40
2023-03-29T05:47:20.784Z,75.74
2023-03-29T05:48:20.772Z,75.48
2023-03-29T05:49:20.750Z,75.64
2023-03-29T05:50:20.782Z,75.85
2023-03-29T05:51:20.790Z,73.04
2023-03-29T05:52:20.742Z,74.05
2023-03-29T05:53:20.712Z,74.21
2023-03-29T05:54:20.761Z,74.25
2023-03-29T05:55:20.789Z,75.12
2023-03-29T05:56:20.744Z,73.01
2023-03-29T05:57:20.825Z,72.46
2023-03-29T05:58:20.737Z,75.28
2023-03-29T05:59:20.745Z,75.65
2023-03-29T06:00:20.677Z,75.30
2023-03-29T06:01:20.704Z,75.31
2023-03-29T06:02:20.790Z,72.33
2023-03-29T06:03:21.860Z,77.21
2023-03-29T06:04:21.772Z,75.81
2023-03-29T06:05:20.632Z,75.71
2023-03-29T06:06:20.691Z,76.52
2023-03-29T06:07:20.663Z,75.14
2023-03-29T06:08:20.633Z,73.94
2023-03-29T06:09:20.636Z,72.98
2023-03-29T06:10:20.610Z,72.28
2023-03-29T06:11:20.677Z,74.92
2023-03-29T06:12:20.630Z,75.13
2023-03-29T06:13:20.581Z,71.97
2023-03-29T06:14:20.580Z,77.93
2023-03-29T06:15:20.650Z,77.73
2023-03-29T06:16:20.694Z,75.01
2023-03-29T06:17:20.812Z,72.74
2023-03-29T06:18:20.615Z,77.43
2023-03-29T06:19:20.564Z,76.04
2023-03-29T06:20:20.629Z,73.38
2023-03-29T06:21:20.868Z,75.86
2023-03-29T06:22:20.561Z,73.11
2023-03-29T06:23:20.532Z,74.95
2023-03-29T06:24:21.541Z,73.67
2023-03-29T06:25:20.586Z,74.36
2023-03-29T06:26:20.563Z,75.39
2023-03-29T06:27:20.528Z,72.65
2023-03-29T06:28:20.527Z,72.69
2023-03-29T06:29:20.492Z,74.35
2023-03-29T06:30:20.524Z,74.51
2023-03-29T06:31:20.677Z,75.38
2023-03-29T06:32:20.495Z,73.69
2023-03-29T06:33:20.537Z,76.48
2023-03-29T06:34:20.482Z,76.58
2023-03-29T06:35:20.522Z,72.82
2023-03-29T06:36:20.609Z,74.84
2023-03-29T06:37:20.517Z,74.15
2023-03-29T06:38:20.495Z,74.41
2023-03-29T06:39:20.525Z,75.16
2023-03-29T06:40:20.461Z,74.54
2023-03-29T06:41:20.463Z,77.81
2023-03-29T06:42:21.765Z,74.14
2023-03-29T06:43:21.457Z,75.41
2023-03-29T06:44:20.486Z,71.52
2023-03-29T06:45:23.220Z,75.21
2023-03-29T06:46:21.439Z,75.01
2023-03-29T06:47:20.456Z,73.78
2023-03-29T06:48:20.430Z,80.74
2023-03-29T06:49:20.379Z,73.15
2023-03-29T06:50:20.398Z,69.54
2023-03-29T06:51:22.657Z,75.67
2023-03-29T06:52:21.426Z,73.47
2023-03-29T06:53:20.441Z,74.69
2023-03-29T06:54:20.431Z,74.91
2023-03-29T06:55:20.434Z,72.51
2023-03-29T06:56:20.401Z,76.55
2023-03-29T06:57:20.346Z,73.21
2023-03-29T06:58:20.376Z,72.02
2023-03-29T06:59:20.353Z,73.64
2023-03-29T07:00:20.320Z,75.91
2023-03-29T07:01:20.356Z,71.35
2023-03-29T07:02:20.315Z,76.15
2023-03-29T07:03:20.384Z,70.64
2023-03-29T07:04:20.439Z,77.87
2023-03-29T07:05:20.291Z,75.58
2023-03-29T07:06:20.374Z,70.38
2023-03-29T07:07:20.692Z,72.55
2023-03-29T07:08:20.303Z,72.73
2023-03-29T07:09:20.334Z,70.54
2023-03-29T07:10:20.262Z,67.92
2023-03-29T07:11:20.260Z,72.91
2023-03-29T07:12:20.268Z,73.41
2023-03-29T07:13:20.265Z,73.27
2023-03-29T07:14:20.276Z,71.26
2023-03-29T07:15:20.243Z,68.95
2023-03-29T07:16:20.317Z,77.47
2023-03-29T07:17:20.232Z,71.70
2023-03-29T07:18:20.392Z,72.24
2023-03-29T07:19:20.257Z,73.01
2023-03-29T07:20:20.216Z,74.33
2023-03-29T07:21:20.240Z,70.13
2023-03-29T07:22:20.216Z,73.67
2023-03-29T07:23:20.199Z,73.67
2023-03-29T07:24:20.242Z,76.42
2023-03-29T07:25:20.192Z,71.41
2023-03-29T07:26:29.014Z,72.48
2023-03-29T07:27:21.194Z,75.36
2023-03-29T07:28:20.178Z,68.43
2023-03-29T07:29:20.345Z,72.80
2023-03-29T07:30:20.162Z,74.15
2023-03-29T07:31:20.162Z,73.39
2023-03-29T07:32:20.224Z,70.07
2023-03-29T07:33:20.294Z,69.50
2023-03-29T07:34:20.166Z,70.87
2023-03-29T07:35:20.112Z,75.51
2023-03-29T07:36:20.166Z,72.37
2023-03-29T07:37:20.102Z,74.10
2023-03-29T07:38:20.114Z,73.78
2023-03-29T07:39:20.117Z,72.68
2023-03-29T07:40:20.121Z,74.77
2023-03-29T07:41:20.086Z,73.26
2023-03-29T07:42:20.144Z,73.38
2023-03-29T07:43:20.110Z,69.96
2023-03-29T07:44:20.268Z,70.84
2023-03-29T07:45:20.140Z,73.64
2023-03-29T07:46:21.081Z,73.38
2023-03-29T07:47:20.039Z,71.60
2023-03-29T07:48:20.071Z,68.91
2023-03-29T07:49:21.675Z,69.73
2023-03-29T07:50:21.166Z,73.62
2023-03-29T07:51:20.003Z,74.45
2023-03-29T07:52:20.034Z,76.13
2023-03-29T07:53:20.019Z,71.90
2023-03-29T07:54:20.008Z,72.60
2023-03-29T07:55:20.035Z,72.56
2023-03-29T07:56:20.034Z,71.38
2023-03-29T07:57:20.022Z,71.97
2023-03-29T07:58:19.977Z,70.66
2023-03-29T07:59:19.948Z,69.23
2023-03-29T08:00:20.069Z,70.21
2023-03-29T08:01:20.188Z,70.01
2023-03-29T08:02:19.956Z,71.58
2023-03-29T08:03:20.049Z,63.55
2023-03-29T08:04:20.030Z,74.77
2023-03-29T08:05:29.239Z,73.25
2023-03-29T08:06:21.972Z,72.63
2023-03-29T08:07:19.986Z,71.06
2023-03-29T08:08:19.945Z,71.17
2023-03-29T08:09:19.917Z,71.10
2023-03-29T08:10:19.977Z,72.78
2023-03-29T08:11:20.036Z,72.70
2023-03-29T08:12:19.901Z,70.98
2023-03-29T08:13:19.894Z,72.43
2023-03-29T08:14:19.890Z,73.40
2023-03-29T08:15:19.925Z,74.20
2023-03-29T08:16:19.939Z,71.31
2023-03-29T08:17:19.894Z,71.83
2023-03-29T08:18:19.860Z,73.45
2023-03-29T08:19:19.944Z,69.35
2023-03-29T08:20:19.841Z,73.66
2023-03-29T08:21:19.841Z,69.08
2023-03-29T08:22:19.885Z,71.02
2023-03-29T08:23:19.867Z,71.56
2023-03-29T08:24:21.005Z,77.53
2023-03-29T08:25:20.845Z,67.74
2023-03-29T08:26:19.849Z,71.62
2023-03-29T08:27:19.813Z,68.63
2023-03-29T08:28:19.850Z,73.40
2023-03-29T08:29:19.819Z,74.36
2023-03-29T08:30:19.759Z,71.71
2023-03-29T08:31:19.798Z,74.41
2023-03-29T08:32:19.800Z,75.63
2023-03-29T08:33:19.956Z,71.19
2023-03-29T08:34:19.766Z,74.78
2023-03-29T08:35:19.787Z,71.51
2023-03-29T08:36:19.828Z,71.13
2023-03-29T08:37:19.832Z,71.30
2023-03-29T08:38:19.763Z,73.55
2023-03-29T08:39:19.769Z,69.16
2023-03-29T08:40:19.784Z,73.73
2023-03-29T08:41:19.724Z,72.56
2023-03-29T08:42:19.677Z,74.23
2023-03-29T08:43:19.724Z,75.27
2023-03-29T08:44:19.686Z,72.48
2023-03-29T08:45:19.670Z,69.03
2023-03-29T08:46:19.713Z,73.08
2023-03-29T08:47:19.640Z,69.07
2023-03-29T08:48:19.684Z,74.31
2023-03-29T08:49:19.737Z,68.58
2023-03-29T08:50:19.998Z,71.93
2023-03-29T08:51:19.629Z,66.80
2023-03-29T08:52:19.667Z,71.71
2023-03-29T08:53:19.646Z,70.56
2023-03-29T08:54:19.610Z,68.48
2023-03-29T08:55:19.629Z,69.09
2023-03-29T08:56:19.583Z,67.78
2023-03-29T08:57:19.711Z,71.20
2023-03-29T08:58:19.632Z,75.32
2023-03-29T08:59:19.596Z,71.25
2023-03-29T09:00:19.630Z,72.76
2023-03-29T09:01:19.595Z,71.72
2023-03-29T09:02:19.575Z,67.22
2023-03-29T09:03:19.639Z,70.57
2023-03-29T09:04:19.667Z,67.59
2023-03-29T09:05:19.658Z,70.22
2023-03-29T09:06:19.559Z,73.26
2023-03-29T09:07:19.573Z,69.60
2023-03-29T09:08:19.502Z,71.28
2023-03-29T09:09:19.491Z,68.77
2023-03-29T09:10:19.521Z,68.89
2023-03-29T09:11:19.499Z,75.22
2023-03-29T09:12:19.512Z,73.23
2023-03-29T09:13:19.538Z,67.65
2023-03-29T09:14:19.525Z,72.48
2023-03-29T09:15:19.525Z,73.98
2023-03-29T09:16:19.503Z,74.04
2023-03-29T09:17:19.490Z,72.47
2023-03-29T09:18:19.502Z,70.53
2023-03-29T09:19:19.468Z,70.92
2023-03-29T09:20:20.439Z,73.68
2023-03-29T09:21:19.425Z,74.70
2023-03-29T09:22:19.446Z,75.34
2023-03-29T09:23:19.493Z,76.87
2023-03-29T09:24:19.383Z,69.33
2023-03-29T09:25:19.381Z,73.73
2023-03-29T09:26:19.497Z,73.74
2023-03-29T09:27:19.376Z,66.23
2023-03-29T09:28:19.378Z,75.53
2023-03-29T09:29:19.362Z,77.67
2023-03-29T09:30:19.387Z,74.42
2023-03-29T09:31:19.406Z,72.11
2023-03-29T09:32:19.383Z,70.64
2023-03-29T09:33:19.344Z,69.30
2023-03-29T09:34:19.405Z,68.05
2023-03-29T09:35:52.827Z,70.22
2023-03-29T09:36:51.821Z,78.02
2023-03-29T09:37:53.831Z,74.07
2023-03-29T09:38:19.333Z,71.04
2023-03-29T09:39:52.910Z,75.22
2023-03-29T09:40:19.294Z,80.45
2023-03-29T09:41:52.743Z,72.38
2023-03-29T09:42:52.729Z,72.79
2023-03-29T09:43:55.408Z,72.76
2023-03-29T09:44:30.260Z,72.00
2023-03-29T09:45:21.268Z,71.45
2023-03-29T09:46:19.432Z,74.13
2023-03-29T09:47:19.255Z,73.33
2023-03-29T09:48:19.285Z,69.99
2023-03-29T09:49:19.241Z,66.88
2023-03-29T09:50:30.305Z,72.47
2023-03-29T09:51:21.210Z,71.63
2023-03-29T09:52:19.218Z,73.34
2023-03-29T09:53:19.226Z,68.81
2023-03-29T09:54:19.222Z,73.29
2023-03-29T09:55:19.216Z,72.16
2023-03-29T09:56:19.184Z,73.01
2023-03-29T09:57:19.252Z,69.51
2023-03-29T09:58:19.200Z,66.95
2023-03-29T09:59:19.280Z,70.46
2023-03-29T10:00:19.180Z,74.87
2023-03-29T10:01:19.374Z,72.71
2023-03-29T10:02:19.175Z,70.71
2023-03-29T10:03:19.159Z,75.28
2023-03-29T10:04:19.206Z,72.78
2023-03-29T10:05:19.833Z,72.04
2023-03-29T10:06:19.149Z,75.93
2023-03-29T10:07:19.177Z,72.61
2023-03-29T10:08:19.885Z,67.26
2023-03-29T10:09:20.115Z,75.26
2023-03-29T10:10:20.157Z,72.74
2023-03-29T10:11:19.197Z,74.89
2023-03-29T10:12:19.097Z,71.67
2023-03-29T10:13:19.078Z,75.08
2023-03-29T10:14:19.068Z,74.72
2023-03-29T10:15:29.146Z,70.65
2023-03-29T10:16:21.168Z,71.09
2023-03-29T10:17:19.094Z,71.52
2023-03-29T10:18:19.084Z,71.80
2023-03-29T10:19:19.090Z,74.72
2023-03-29T10:20:19.032Z,71.44
2023-03-29T10:21:19.054Z,69.86
2023-03-29T10:22:19.057Z,73.14
2023-03-29T10:23:19.061Z,69.94
2023-03-29T10:24:19.012Z,74.19
2023-03-29T10:25:19.018Z,71.73
2023-03-29T10:26:19.015Z,72.62
2023-03-29T10:27:19.019Z,69.39
2023-03-29T10:28:18.965Z,72.97
2023-03-29T10:29:18.985Z,70.35
2023-03-29T10:30:18.985Z,69.39
2023-03-29T10:31:18.991Z,71.39
2023-03-29T10:32:18.968Z,71.10
2023-03-29T10:33:18.956Z,75.03
2023-03-29T10:34:18.999Z,74.29
2023-03-29T10:35:18.935Z,70.99
2023-03-29T10:36:18.966Z,72.96
2023-03-29T10:37:18.959Z,71.60
2023-03-29T10:38:18.931Z,71.34
2023-03-29T10:39:18.968Z,70.17
2023-03-29T10:40:18.953Z,72.66
2023-03-29T10:41:18.912Z,69.34
2023-03-29T10:42:18.944Z,73.93
2023-03-29T10:43:18.937Z,71.37
2023-03-29T10:44:18.911Z,72.88
2023-03-29T10:45:18.911Z,73.71
2023-03-29T10:46:18.924Z,71.97
2023-03-29T10:47:18.914Z,74.23
2023-03-29T10:48:18.896Z,71.38
2023-03-29T10:49:18.870Z,71.31
2023-03-29T10:50:18.902Z,72.79
2023-03-29T10:51:18.868Z,74.52
2023-03-29T10:52:18.862Z,74.72
2023-03-29T10:53:18.833Z,70.17
2023-03-29T10:54:18.852Z,71.00
2023-03-29T10:55:18.835Z,72.97
2023-03-29T10:56:18.841Z,71.10
2023-03-29T10:57:20.971Z,69.98
2023-03-29T10:58:18.842Z,73.01
2023-03-29T10:59:18.856Z,69.95
2023-03-29T11:00:18.948Z,71.50
2023-03-29T11:01:18.904Z,72.84
2023-03-29T11:02:18.835Z,74.05
2023-03-29T11:03:21.014Z,73.22
2023-03-29T11:04:19.741Z,74.67
2023-03-29T11:05:18.779Z,76.98
2023-03-29T11:06:18.759Z,72.40
2023-03-29T11:07:18.745Z,73.39
2023-03-29T11:08:18.731Z,73.78
2023-03-29T11:09:19.749Z,70.76
2023-03-29T11:10:18.749Z,72.86
2023-03-29T11:11:18.742Z,72.30
2023-03-29T11:12:18.729Z,72.52
2023-03-29T11:13:18.736Z,73.62
2023-03-29T11:14:18.729Z,72.58
2023-03-29T11:15:18.689Z,72.15
2023-03-29T11:16:18.797Z,73.41
2023-03-29T11:17:18.685Z,74.98
2023-03-29T11:18:18.702Z,73.82
2023-03-29T11:19:18.679Z,74.10
2023-03-29T11:20:18.667Z,74.87
2023-03-29T11:21:18.713Z,74.02
2023-03-29T11:22:18.652Z,73.01
2023-03-29T11:23:19.435Z,74.68
2023-03-29T11:24:18.666Z,74.55
2023-03-29T11:25:18.681Z,74.02
2023-03-29T11:26:18.629Z,72.01
2023-03-29T11:27:18.606Z,76.09
2023-03-29T11:28:18.642Z,75.75
2023-03-29T11:29:18.796Z,75.38
2023-03-29T11:30:18.641Z,71.84
2023-03-29T11:31:18.685Z,73.89
2023-03-29T11:32:18.582Z,75.09
2023-03-29T11:33:18.565Z,75.20
2023-03-29T11:34:18.563Z,71.94
2023-03-29T11:35:18.615Z,70.59
2023-03-29T11:36:19.439Z,74.84
2023-03-29T11:37:18.535Z,76.66
2023-03-29T11:38:18.619Z,72.47
2023-03-29T11:39:18.582Z,70.79
2023-03-29T11:40:18.525Z,75.46
2023-03-29T11:41:18.550Z,73.36
2023-03-29T11:42:18.526Z,71.23
2023-03-29T11:43:18.514Z,75.40
2023-03-29T11:44:18.527Z,74.53
2023-03-29T11:45:18.601Z,75.03
2023-03-29T11:46:19.957Z,73.90
2023-03-29T11:47:18.585Z,72.59
2023-03-29T11:48:18.480Z,73.69
2023-03-29T11:49:18.566Z,70.75
2023-03-29T11:50:18.480Z,73.33
2023-03-29T11:51:18.517Z,74.42
2023-03-29T11:52:18.480Z,76.95
2023-03-29T11:53:18.444Z,74.54
2023-03-29T11:54:18.448Z,72.97
2023-03-29T11:55:18.494Z,76.59
2023-03-29T11:56:18.434Z,73.89
2023-03-29T11:57:18.451Z,73.65
2023-03-29T11:58:18.412Z,75.65
2023-03-29T11:59:18.451Z,71.95
2023-03-29T12:00:18.430Z,74.87
2023-03-29T12:01:18.419Z,74.98
2023-03-29T12:02:18.421Z,72.13
2023-03-29T12:03:18.437Z,73.98
2023-03-29T12:04:18.386Z,75.04
2023-03-29T12:05:18.398Z,73.61
2023-03-29T12:06:18.364Z,74.78
2023-03-29T12:07:18.448Z,73.56
2023-03-29T12:08:18.415Z,76.19
2023-03-29T12:09:18.366Z,70.27
2023-03-29T12:10:18.330Z,73.33
2023-03-29T12:11:18.454Z,76.76
2023-03-29T12:12:19.264Z,76.32
2023-03-29T12:13:18.715Z,70.59
2023-03-29T12:14:18.304Z,74.86
2023-03-29T12:15:18.304Z,76.18
2023-03-29T12:16:18.310Z,77.86
2023-03-29T12:17:18.324Z,75.03
2023-03-29T12:18:18.907Z,74.12
2023-03-29T12:19:18.291Z,74.90
2023-03-29T12:20:18.293Z,74.49
2023-03-29T12:21:18.269Z,74.20
2023-03-29T12:22:18.232Z,75.19
2023-03-29T12:23:18.246Z,76.98
2023-03-29T12:24:18.286Z,75.00
2023-03-29T12:25:19.291Z,75.24
2023-03-29T12:26:19.212Z,77.09
2023-03-29T12:27:18.281Z,74.58
2023-03-29T12:28:18.221Z,70.60
2023-03-29T12:29:18.210Z,73.24
2023-03-29T12:30:18.187Z,73.95
2023-03-29T12:31:18.209Z,77.27
2023-03-29T12:32:18.220Z,72.62
2023-03-29T12:33:18.283Z,73.39
2023-03-29T12:34:18.174Z,74.07
2023-03-29T12:35:18.251Z,75.32
2023-03-29T12:36:18.234Z,74.51
2023-03-29T12:37:18.212Z,73.08
2023-03-29T12:38:18.160Z,73.52
2023-03-29T12:39:18.147Z,75.95
2023-03-29T12:40:18.208Z,74.01
2023-03-29T12:41:18.122Z,72.55
2023-03-29T12:42:18.182Z,75.39
2023-03-29T12:43:18.143Z,73.33
2023-03-29T12:44:18.106Z,74.39
2023-03-29T12:45:18.131Z,77.18
2023-03-29T12:46:18.213Z,75.42
2023-03-29T12:47:18.091Z,75.90
2023-03-29T12:48:18.112Z,75.40
2023-03-29T12:49:20.479Z,75.20
2023-03-29T12:50:19.117Z,73.52
2023-03-29T12:51:18.070Z,71.97
2023-03-29T12:52:18.055Z,75.94